Time;durP1;ratioP1;P1;durP2;ratioP2;P2;SDS_P1;SDS_P2;PMS_P1;PMS_P2;Temp;Humidity;BMP_temperature;BMP_pressure;BME280_temperature;BME280_humidity;BME280_pressure;Samples;Min_cycle;Max_cycle;Signal;HPM_P1;HPM_P2
2022/08/14 00:00:11;;;;;;;2.53;2.33;;;18.10;92.00;;;;;;5094348;28;20625;-80
2022/08/14 00:02:38;;;;;;;1.97;1.87;;;18.10;92.50;;;;;;5086495;28;20627;-79
2022/08/14 00:05:06;;;;;;;2.60;2.40;;;18.10;92.90;;;;;;5084566;28;20998;-79
2022/08/14 00:07:34;;;;;;;2.63;2.20;;;18.00;93.30;;;;;;5083542;28;20628;-79
2022/08/14 00:10:01;;;;;;;3.20;2.60;;;18.00;93.90;;;;;;5082888;28;20632;-79
2022/08/14 00:12:28;;;;;;;2.47;2.33;;;17.90;94.50;;;;;;5089951;28;20619;-79
2022/08/14 00:14:56;;;;;;;2.80;2.60;;;17.90;94.80;;;;;;5093091;28;20639;-79
2022/08/14 00:17:25;;;;;;;3.87;2.60;;;17.80;94.80;;;;;;5092028;28;20664;-79
2022/08/14 00:19:52;;;;;;;4.03;3.17;;;17.80;95.60;;;;;;5094033;28;20620;-79
2022/08/14 00:22:19;;;;;;;2.90;2.70;;;17.70;96.50;;;;;;5092120;28;20621;-79
2022/08/14 00:24:46;;;;;;;3.67;2.73;;;17.70;96.40;;;;;;5090634;28;21124;-79
2022/08/14 00:27:13;;;;;;;6.47;3.30;;;17.70;96.40;;;;;;5089499;28;20663;-79
2022/08/14 00:29:40;;;;;;;3.57;3.13;;;17.60;96.50;;;;;;5095983;28;20630;-79
2022/08/14 00:32:08;;;;;;;3.90;3.47;;;17.60;97.00;;;;;;5090812;28;21203;-79
2022/08/14 00:34:35;;;;;;;4.17;3.57;;;17.60;96.80;;;;;;5081948;28;20659;-77
2022/08/14 00:37:02;;;;;;;3.43;3.03;;;17.60;98.10;;;;;;5080142;28;20782;-79
2022/08/14 00:39:29;;;;;;;8.33;4.33;;;17.50;98.80;;;;;;5070259;28;20633;-79
2022/08/14 00:41:56;;;;;;;3.00;2.70;;;17.50;99.40;;;;;;5091239;28;20644;-79
2022/08/14 00:44:22;;;;;;;2.77;2.57;;;17.40;99.60;;;;;;5089862;28;21166;-79
2022/08/14 00:46:49;;;;;;;2.93;2.73;;;17.40;99.60;;;;;;5092476;28;20662;-79
2022/08/14 00:49:18;;;;;;;3.57;2.07;;;17.40;99.90;;;;;;5093193;28;20628;-79
2022/08/14 00:51:45;;;;;;;3.23;3.03;;;17.40;99.90;;;;;;5094934;28;20616;-80
2022/08/14 00:54:13;;;;;;;3.03;2.83;;;17.40;99.90;;;;;;5087673;28;20659;-79
2022/08/14 00:56:40;;;;;;;3.27;2.97;;;17.30;99.90;;;;;;5083574;28;20675;-80
2022/08/14 00:59:08;;;;;;;3.20;2.90;;;17.30;99.90;;;;;;5089376;28;20628;-79
2022/08/14 01:01:35;;;;;;;4.13;2.60;;;17.30;99.90;;;;;;5095747;28;20668;-79
2022/08/14 01:04:04;;;;;;;2.93;2.73;;;17.20;99.90;;;;;;5088603;28;20627;-79
2022/08/14 01:06:32;;;;;;;2.53;2.43;;;17.20;99.90;;;;;;5086387;28;20659;-79
2022/08/14 01:09:01;;;;;;;5.10;2.30;;;17.10;99.90;;;;;;5074687;28;21146;-79
2022/08/14 01:11:28;;;;;;;2.47;2.37;;;17.00;99.90;;;;;;5081088;28;21109;-79
2022/08/14 01:14:00;;;;;;;3.10;2.90;;;17.00;99.90;;;;;;5096338;28;20634;-79
2022/08/14 01:16:29;;;;;;;2.90;2.70;;;17.00;99.90;;;;;;5090243;28;21240;-80
2022/08/14 01:21:44;;;;;;;3.37;3.00;;;16.90;99.90;;;;;;5089867;28;20653;-79
2022/08/14 01:24:14;;;;;;;3.23;3.03;;;16.80;99.90;;;;;;5088038;28;20690;-79
2022/08/14 01:26:41;;;;;;;4.93;2.83;;;16.80;99.90;;;;;;5085783;28;20656;-79
2022/08/14 01:29:08;;;;;;;5.60;2.97;;;16.80;99.90;;;;;;5090738;28;20632;-79
2022/08/14 01:31:37;;;;;;;3.37;3.10;;;16.80;99.90;;;;;;5088146;28;20620;-79
2022/08/14 01:34:06;;;;;;;3.63;3.33;;;16.70;99.90;;;;;;5090375;28;20639;-79
2022/08/14 01:36:36;;;;;;;2.90;2.70;;;16.60;99.90;;;;;;5087757;28;20683;-79
2022/08/14 01:39:08;;;;;;;2.83;2.60;;;16.60;99.90;;;;;;5093262;28;20621;-79
2022/08/14 01:41:37;;;;;;;2.70;2.50;;;16.50;99.90;;;;;;5093162;28;20624;-79
2022/08/14 01:44:06;;;;;;;3.20;3.00;;;16.50;99.90;;;;;;5086137;28;20622;-79
2022/08/14 01:46:36;;;;;;;4.57;3.27;;;16.50;99.90;;;;;;5088820;28;20647;-79
2022/08/14 01:49:06;;;;;;;5.17;3.97;;;16.50;99.90;;;;;;5080188;28;20628;-79
2022/08/14 01:51:34;;;;;;;3.90;3.47;;;16.50;99.90;;;;;;5073231;28;20648;-79
2022/08/14 01:54:09;;;;;;;4.80;4.27;;;16.50;99.90;;;;;;5060646;28;20632;-79
2022/08/14 01:56:38;;;;;;;5.93;4.70;;;16.50;99.90;;;;;;5092040;28;20727;-79
2022/08/14 01:59:07;;;;;;;4.83;4.43;;;16.50;99.90;;;;;;5083924;28;20669;-79
2022/08/14 02:01:36;;;;;;;7.23;6.73;;;16.40;99.90;;;;;;5087670;28;20973;-79
2022/08/14 02:04:04;;;;;;;8.30;6.50;;;16.30;99.90;;;;;;5083916;28;20624;-79
2022/08/14 02:06:31;;;;;;;6.20;5.70;;;16.30;99.90;;;;;;5086262;28;20645;-79
2022/08/14 02:08:59;;;;;;;6.67;6.17;;;16.30;99.90;;;;;;5092213;28;20623;-78
2022/08/14 02:11:27;;;;;;;5.60;5.20;;;16.30;99.90;;;;;;5089804;28;21207;-79
2022/08/14 02:13:59;;;;;;;4.60;4.30;;;16.30;99.90;;;;;;5094172;28;20644;-79
2022/08/14 02:16:28;;;;;;;4.47;4.07;;;16.30;99.90;;;;;;5091710;28;20683;-78
2022/08/14 02:18:56;;;;;;;6.30;5.67;;;16.30;99.90;;;;;;5079372;28;20664;-78
2022/08/14 02:21:24;;;;;;;4.83;4.53;;;16.20;99.90;;;;;;5072531;28;20610;-79
2022/08/14 02:23:53;;;;;;;4.60;4.30;;;16.20;99.90;;;;;;5085748;28;20616;-81
2022/08/14 02:26:22;;;;;;;4.97;4.57;;;16.20;99.90;;;;;;5091292;28;21031;-79
2022/08/14 02:28:52;;;;;;;3.97;3.70;;;16.20;99.90;;;;;;5083828;28;21198;-80
2022/08/14 02:31:19;;;;;;;4.13;3.73;;;16.20;99.90;;;;;;5083814;28;20993;-80
2022/08/14 02:33:46;;;;;;;3.87;3.40;;;16.20;99.90;;;;;;5094702;28;20615;-78
2022/08/14 02:36:15;;;;;;;3.57;3.33;;;16.10;99.90;;;;;;5086921;28;20721;-80
2022/08/14 02:38:42;;;;;;;3.73;3.07;;;16.10;99.90;;;;;;5090703;28;21232;-80
2022/08/14 02:41:11;;;;;;;3.63;3.33;;;16.10;99.90;;;;;;5088804;28;20624;-80
2022/08/14 02:43:39;;;;;;;4.00;2.90;;;16.10;99.90;;;;;;5085806;28;21165;-80
2022/08/14 02:46:10;;;;;;;3.43;3.07;;;16.00;99.90;;;;;;5087356;28;20656;-79
2022/08/14 02:48:38;;;;;;;3.07;2.87;;;15.90;99.90;;;;;;5086258;28;20634;-79
2022/08/14 02:51:08;;;;;;;3.10;2.77;;;15.90;99.90;;;;;;5078446;28;20641;-79
2022/08/14 02:53:34;;;;;;;3.47;3.27;;;15.90;99.90;;;;;;5082376;28;20742;-80
2022/08/14 02:56:03;;;;;;;4.47;2.90;;;15.90;99.90;;;;;;5086864;28;20684;-79
2022/08/14 02:58:30;;;;;;;3.37;3.17;;;15.90;99.90;;;;;;5091547;28;21235;-79
2022/08/14 03:00:57;;;;;;;3.43;3.13;;;15.80;99.90;;;;;;5097914;28;20627;-80
2022/08/14 03:03:25;;;;;;;3.60;3.20;;;15.80;99.90;;;;;;5095333;28;21005;-80
2022/08/14 03:05:53;;;;;;;4.17;3.73;;;15.80;99.90;;;;;;5092479;28;20648;-80
2022/08/14 03:08:21;;;;;;;3.10;2.90;;;15.80;99.90;;;;;;5095236;28;20724;-79
2022/08/14 03:10:49;;;;;;;2.97;2.77;;;15.70;99.90;;;;;;5094888;28;20628;-79
2022/08/14 03:13:16;;;;;;;3.50;2.97;;;15.70;99.90;;;;;;5092888;28;20628;-79
2022/08/14 03:15:46;;;;;;;3.70;3.40;;;15.60;99.90;;;;;;5093708;28;21463;-79
2022/08/14 03:18:14;;;;;;;5.10;3.13;;;15.60;99.90;;;;;;5090732;28;20670;-79
2022/08/14 03:20:42;;;;;;;3.77;3.47;;;15.60;99.90;;;;;;5086696;28;20636;-79
2022/08/14 03:23:09;;;;;;;3.63;3.33;;;15.60;99.90;;;;;;5078647;28;20624;-79
2022/08/14 03:25:36;;;;;;;3.63;2.93;;;15.60;99.90;;;;;;5080146;28;21294;-79
2022/08/14 03:28:05;;;;;;;3.50;3.30;;;15.60;99.90;;;;;;5092696;28;20619;-79
2022/08/14 03:30:34;;;;;;;4.67;3.17;;;15.50;99.90;;;;;;5094844;28;20623;-79
2022/08/14 03:33:02;;;;;;;3.43;3.20;;;15.50;99.90;;;;;;5091855;28;20995;-79
2022/08/14 03:35:29;;;;;;;3.83;3.53;;;15.50;99.90;;;;;;5095797;28;20706;-78
2022/08/14 03:38:07;;;;;;;3.40;3.20;;;15.50;99.90;;;;;;5091769;28;20719;-78
2022/08/14 03:40:37;;;;;;;3.10;2.90;;;15.50;99.90;;;;;;5093714;28;20606;-78
2022/08/14 03:43:04;;;;;;;4.20;3.80;;;15.50;99.90;;;;;;5087454;28;20652;-78
2022/08/14 03:45:32;;;;;;;3.90;3.70;;;15.50;99.90;;;;;;5082527;28;21297;-78
2022/08/14 03:47:59;;;;;;;4.57;3.00;;;15.40;99.90;;;;;;5093086;28;20624;-78
2022/08/14 03:50:28;;;;;;;3.50;3.10;;;15.30;99.90;;;;;;5083629;28;21170;-78
2022/08/14 03:52:56;;;;;;;4.10;3.80;;;15.40;99.90;;;;;;5075814;28;20608;-78
2022/08/14 03:55:23;;;;;;;4.20;3.70;;;15.30;99.90;;;;;;5073559;28;20651;-79
2022/08/14 03:57:50;;;;;;;3.30;3.07;;;15.30;99.90;;;;;;5089863;28;20670;-79
2022/08/14 04:00:17;;;;;;;3.37;3.17;;;15.30;99.90;;;;;;5091328;28;20627;-78
2022/08/14 04:02:44;;;;;;;3.83;3.50;;;15.30;99.90;;;;;;5096045;28;20622;-79
2022/08/14 04:05:11;;;;;;;4.37;3.40;;;15.20;99.90;;;;;;5090171;28;20649;-78
2022/08/14 04:07:38;;;;;;;4.67;3.60;;;15.20;99.90;;;;;;5096393;28;20994;-78
2022/08/14 04:10:08;;;;;;;4.40;4.00;;;15.20;99.90;;;;;;5088018;28;20676;-78
2022/08/14 04:12:36;;;;;;;3.87;3.57;;;15.20;99.90;;;;;;5087404;28;20622;-79
2022/08/14 04:15:04;;;;;;;4.13;3.67;;;15.20;99.90;;;;;;5087148;28;20638;-78
2022/08/14 04:17:32;;;;;;;3.13;2.97;;;15.10;99.90;;;;;;5093243;28;20686;-79
2022/08/14 04:20:04;;;;;;;3.77;3.47;;;15.20;99.90;;;;;;5090152;28;21172;-78
2022/08/14 04:22:31;;;;;;;5.23;3.33;;;15.20;99.90;;;;;;5088330;28;20621;-78
2022/08/14 04:25:00;;;;;;;3.83;3.53;;;15.20;99.90;;;;;;5089049;28;20655;-80
2022/08/14 04:27:29;;;;;;;3.60;3.40;;;15.10;99.90;;;;;;5088102;28;20646;-79
2022/08/14 04:29:56;;;;;;;3.33;3.13;;;15.20;99.90;;;;;;5079605;28;20685;-79
2022/08/14 04:32:26;;;;;;;3.70;3.40;;;15.10;99.90;;;;;;5071731;28;20690;-79
2022/08/14 04:34:53;;;;;;;3.90;3.60;;;15.20;99.90;;;;;;5077027;28;20628;-79
2022/08/14 04:45:40;;;;;;;3.90;3.70;;;15.10;99.90;;;;;;5087514;28;20708;-79
2022/08/14 04:48:13;;;;;;;3.80;3.50;;;15.20;99.90;;;;;;5089111;28;20631;-79
2022/08/14 04:50:42;;;;;;;3.80;3.50;;;15.20;99.90;;;;;;5078594;28;20624;-79
2022/08/14 04:53:11;;;;;;;3.90;3.70;;;15.20;99.90;;;;;;5083130;28;20723;-79
2022/08/14 04:55:40;;;;;;;4.17;3.80;;;15.30;99.90;;;;;;5092410;28;20643;-79
2022/08/14 04:58:10;;;;;;;3.63;3.43;;;15.30;99.90;;;;;;5081498;28;20675;-79
2022/08/14 05:00:39;;;;;;;3.60;3.40;;;15.30;99.90;;;;;;5089373;28;20619;-79
2022/08/14 05:03:06;;;;;;;4.17;3.97;;;15.30;99.90;;;;;;5088848;28;20672;-79
2022/08/14 05:05:33;;;;;;;3.60;3.10;;;15.40;99.90;;;;;;5091788;28;20650;-79
2022/08/14 05:08:07;;;;;;;4.10;3.57;;;15.50;99.90;;;;;;5093609;28;20621;-79
2022/08/14 05:10:36;;;;;;;4.37;3.27;;;15.60;99.90;;;;;;5075706;28;20627;-79
2022/08/14 05:13:04;;;;;;;5.00;3.53;;;15.70;99.90;;;;;;5069887;28;21046;-79
2022/08/14 05:15:35;;;;;;;4.13;3.83;;;15.70;99.90;;;;;;5091386;28;20660;-79
2022/08/14 05:18:02;;;;;;;4.50;4.10;;;15.90;99.90;;;;;;5090413;28;20695;-78
2022/08/14 05:20:29;;;;;;;3.70;3.50;;;16.00;99.90;;;;;;5088888;28;20690;-78
2022/08/14 05:22:58;;;;;;;4.83;4.33;;;16.00;99.90;;;;;;5092652;28;20780;-79
2022/08/14 05:25:25;;;;;;;5.30;4.20;;;16.10;99.90;;;;;;5087156;28;20762;-78
2022/08/14 05:27:51;;;;;;;4.83;4.30;;;16.10;99.90;;;;;;5092779;28;20631;-78
2022/08/14 05:30:18;;;;;;;4.90;4.50;;;16.20;99.90;;;;;;5087834;28;20629;-78
2022/08/14 05:32:47;;;;;;;4.10;3.63;;;16.30;99.90;;;;;;5092155;28;20624;-79
2022/08/14 05:35:14;;;;;;;4.43;4.13;;;16.30;99.90;;;;;;5089433;28;20656;-79
2022/08/14 05:37:41;;;;;;;4.30;4.00;;;16.40;99.90;;;;;;5090768;28;20670;-79
2022/08/14 05:40:09;;;;;;;4.93;4.13;;;16.40;99.90;;;;;;5082857;28;20639;-78
2022/08/14 05:42:37;;;;;;;4.20;3.90;;;16.50;99.90;;;;;;5079272;28;21056;-78
2022/08/14 05:45:06;;;;;;;5.00;4.60;;;16.60;99.90;;;;;;5069059;28;20617;-78
2022/08/14 05:47:38;;;;;;;4.97;4.57;;;16.60;99.90;;;;;;5085094;28;20639;-78
2022/08/14 05:50:09;;;;;;;4.60;4.30;;;16.60;99.90;;;;;;5085043;28;20624;-78
2022/08/14 05:52:39;;;;;;;4.13;3.83;;;16.60;99.90;;;;;;5082507;28;20706;-78
2022/08/14 05:55:08;;;;;;;4.20;3.83;;;16.60;99.90;;;;;;5091226;28;20640;-78
2022/08/14 05:57:35;;;;;;;4.20;4.00;;;16.60;99.90;;;;;;5091836;28;20670;-80
2022/08/14 06:00:01;;;;;;;5.50;5.10;;;16.70;99.90;;;;;;5089552;28;20627;-78
2022/08/14 06:02:31;;;;;;;6.30;4.67;;;16.70;99.90;;;;;;5090849;28;20625;-78
2022/08/14 06:05:01;;;;;;;4.10;3.80;;;16.70;99.90;;;;;;5067258;28;20671;-79
2022/08/14 06:07:29;;;;;;;6.73;4.33;;;16.70;99.90;;;;;;5073054;28;20638;-78
2022/08/14 06:09:56;;;;;;;7.40;3.60;;;16.80;99.90;;;;;;5088614;28;20619;-78
2022/08/14 06:12:22;;;;;;;5.93;3.90;;;16.90;99.90;;;;;;5086168;28;20976;-78
2022/08/14 06:14:49;;;;;;;4.57;4.37;;;16.90;99.90;;;;;;5079808;28;20655;-80
2022/08/14 06:17:16;;;;;;;4.90;4.07;;;17.00;99.90;;;;;;5069655;28;21074;-78
2022/08/14 06:19:43;;;;;;;4.80;4.40;;;17.10;99.90;;;;;;5074607;28;21167;-79
2022/08/14 06:22:09;;;;;;;3.60;3.40;;;17.20;99.90;;;;;;5069754;28;20662;-78
2022/08/14 06:24:38;;;;;;;4.43;4.03;;;17.10;99.90;;;;;;5089765;28;21076;-78
2022/08/14 06:27:05;;;;;;;5.10;4.70;;;17.30;99.90;;;;;;5090021;28;20667;-78
2022/08/14 06:29:32;;;;;;;5.17;4.20;;;17.30;99.90;;;;;;5098570;28;21102;-78
2022/08/14 06:31:59;;;;;;;4.27;4.07;;;17.30;99.90;;;;;;5093859;28;20619;-80
2022/08/14 06:34:26;;;;;;;4.60;4.20;;;17.40;99.90;;;;;;5096059;28;20636;-78
2022/08/14 06:36:55;;;;;;;4.17;3.97;;;17.60;99.90;;;;;;5090304;28;20647;-78
2022/08/14 06:39:22;;;;;;;4.50;4.20;;;17.70;99.90;;;;;;5089263;28;20660;-78
2022/08/14 06:41:50;;;;;;;4.80;4.40;;;17.80;99.90;;;;;;5084288;28;20689;-78
2022/08/14 06:44:17;;;;;;;4.87;4.27;;;17.80;99.90;;;;;;5090876;28;20621;-78
2022/08/14 06:46:44;;;;;;;4.67;4.27;;;17.90;99.90;;;;;;5079870;28;20702;-78
2022/08/14 06:49:11;;;;;;;4.20;3.90;;;18.00;99.90;;;;;;5073270;28;20671;-78
2022/08/14 06:51:38;;;;;;;4.00;3.70;;;18.10;99.90;;;;;;5084049;28;20623;-78
2022/08/14 06:54:04;;;;;;;4.97;4.43;;;18.30;99.90;;;;;;5091792;28;20622;-78
2022/08/14 06:56:31;;;;;;;5.40;3.77;;;18.40;99.90;;;;;;5095299;28;21241;-78
2022/08/14 06:58:59;;;;;;;4.13;3.83;;;18.50;99.90;;;;;;5087157;28;21001;-78
2022/08/14 07:06:55;;;;;;;4.07;3.80;;;18.90;99.90;;;;;;5086359;28;20635;-78
2022/08/14 07:09:21;;;;;;;4.53;4.13;;;19.00;99.90;;;;;;5094328;28;20672;-78
2022/08/14 07:11:48;;;;;;;3.73;3.43;;;19.10;99.90;;;;;;5094266;28;20962;-78
2022/08/14 07:14:17;;;;;;;4.17;3.87;;;19.20;99.90;;;;;;5093133;28;20628;-78
2022/08/14 07:16:43;;;;;;;4.13;3.83;;;19.40;99.90;;;;;;5080733;28;20654;-78
2022/08/14 07:19:10;;;;;;;4.80;3.80;;;19.40;99.90;;;;;;5078028;28;20623;-78
2022/08/14 07:21:38;;;;;;;4.10;3.80;;;19.60;99.90;;;;;;5094848;28;20614;-78
2022/08/14 07:24:05;;;;;;;4.40;3.20;;;19.70;99.90;;;;;;5089583;28;20644;-78
2022/08/14 07:26:34;;;;;;;4.00;3.80;;;19.70;99.90;;;;;;5075686;28;20664;-78
2022/08/14 07:29:00;;;;;;;3.80;3.30;;;19.90;99.90;;;;;;5074561;28;20768;-78
2022/08/14 07:31:29;;;;;;;3.40;3.20;;;20.00;99.70;;;;;;5080087;28;20635;-78
2022/08/14 07:33:55;;;;;;;3.57;3.37;;;20.20;99.50;;;;;;5094506;28;21436;-78
2022/08/14 07:36:22;;;;;;;3.97;3.50;;;20.30;99.00;;;;;;5085486;28;21248;-78
2022/08/14 07:38:50;;;;;;;5.13;3.10;;;20.30;98.30;;;;;;5088644;28;21182;-78
2022/08/14 07:41:17;;;;;;;3.30;3.00;;;20.50;98.30;;;;;;5090508;28;20620;-78
2022/08/14 07:43:44;;;;;;;4.00;3.70;;;20.60;97.90;;;;;;5091843;28;20622;-79
2022/08/14 07:46:13;;;;;;;3.53;3.23;;;20.80;97.60;;;;;;5087883;28;20651;-79
2022/08/14 07:48:42;;;;;;;3.40;3.20;;;20.90;97.50;;;;;;5093233;28;20673;-78
2022/08/14 07:51:10;;;;;;;4.07;2.90;;;21.10;97.20;;;;;;5073495;28;20639;-79
2022/08/14 07:53:37;;;;;;;3.53;3.33;;;21.20;96.90;;;;;;5089098;28;21005;-78
2022/08/14 07:56:04;;;;;;;3.30;3.00;;;21.30;96.50;;;;;;5092721;28;20660;-79
2022/08/14 07:58:31;;;;;;;3.90;3.60;;;21.50;96.20;;;;;;5086182;28;21208;-78
2022/08/14 08:00:59;;;;;;;3.40;3.00;;;21.60;95.60;;;;;;5089695;28;20673;-79
2022/08/14 08:03:26;;;;;;;16.30;12.90;;;21.70;94.90;;;;;;5089922;28;20625;-79
2022/08/14 08:05:55;;;;;;;14.33;12.33;;;21.80;94.60;;;;;;5091591;28;20766;-79
2022/08/14 08:08:22;;;;;;;4.50;4.10;;;22.00;94.10;;;;;;5093499;28;20664;-79
2022/08/14 08:10:50;;;;;;;3.13;2.93;;;22.10;93.80;;;;;;5086440;28;20620;-79
2022/08/14 08:13:20;;;;;;;5.13;3.80;;;22.30;93.60;;;;;;5069158;28;21046;-79
2022/08/14 08:15:48;;;;;;;4.30;3.90;;;22.40;93.40;;;;;;5092505;28;21088;-79
2022/08/14 08:18:17;;;;;;;3.80;3.30;;;22.60;93.00;;;;;;5088708;28;20950;-79
2022/08/14 08:20:45;;;;;;;2.97;2.77;;;22.70;92.70;;;;;;5092307;28;20642;-79
2022/08/14 08:23:16;;;;;;;3.57;3.37;;;22.90;92.40;;;;;;5084666;28;20620;-79
2022/08/14 08:25:46;;;;;;;4.33;2.80;;;23.00;92.10;;;;;;5091315;28;20682;-80
2022/08/14 08:28:15;;;;;;;4.23;3.20;;;23.20;92.00;;;;;;5088984;28;20640;-80
2022/08/14 08:30:47;;;;;;;3.00;2.80;;;23.30;91.40;;;;;;5095293;28;20946;-77
2022/08/14 08:33:15;;;;;;;3.20;2.60;;;23.50;91.30;;;;;;5084824;28;21210;-78
2022/08/14 08:35:42;;;;;;;4.10;3.23;;;23.60;90.90;;;;;;5095110;28;20643;-78
2022/08/14 08:38:11;;;;;;;3.33;2.80;;;23.70;90.40;;;;;;5081802;28;21000;-78
2022/08/14 08:40:42;;;;;;;4.00;2.53;;;23.90;90.00;;;;;;5082080;28;20954;-78
2022/08/14 08:43:19;;;;;;;2.87;2.63;;;24.00;88.90;;;;;;5089861;28;21116;-79
2022/08/14 08:45:54;;;;;;;3.07;2.60;;;24.10;86.40;;;;;;5082409;28;20646;-79
2022/08/14 08:48:21;;;;;;;2.67;2.43;;;24.30;86.70;;;;;;5090181;28;20673;-79
2022/08/14 08:50:50;;;;;;;2.53;2.43;;;24.30;85.30;;;;;;5084248;28;20634;-79
2022/08/14 08:53:17;;;;;;;3.13;2.70;;;24.50;84.20;;;;;;5079787;28;21115;-78
2022/08/14 08:55:47;;;;;;;4.23;2.50;;;24.70;80.70;;;;;;5076174;28;20652;-79
2022/08/14 08:58:16;;;;;;;3.23;2.70;;;24.90;79.20;;;;;;5076626;28;20616;-79
2022/08/14 09:00:47;;;;;;;3.23;2.50;;;25.00;80.10;;;;;;5095840;28;20623;-79
2022/08/14 09:03:16;;;;;;;2.53;2.43;;;25.20;78.30;;;;;;5086625;28;20994;-79
2022/08/14 09:05:51;;;;;;;3.70;2.30;;;25.30;73.30;;;;;;5087048;28;20682;-79
2022/08/14 09:08:20;;;;;;;2.73;2.53;;;25.40;73.30;;;;;;5091848;28;20608;-79
2022/08/14 09:10:49;;;;;;;6.10;3.07;;;25.60;71.80;;;;;;5090823;28;20677;-79
2022/08/14 09:13:16;;;;;;;3.40;2.53;;;25.70;70.30;;;;;;5088748;28;20632;-79
2022/08/14 09:15:45;;;;;;;4.50;2.33;;;25.80;69.50;;;;;;5090458;28;20651;-79
2022/08/14 09:18:14;;;;;;;2.80;2.60;;;25.90;69.10;;;;;;5086249;28;20628;-79
2022/08/14 09:20:42;;;;;;;2.80;2.60;;;26.00;69.70;;;;;;5088564;28;20607;-79
2022/08/14 09:23:10;;;;;;;3.10;2.90;;;26.10;67.90;;;;;;5085749;28;21006;-80
2022/08/14 09:25:40;;;;;;;4.70;2.80;;;26.20;67.20;;;;;;5072967;28;20655;-80
2022/08/14 09:28:08;;;;;;;2.90;2.60;;;26.40;67.30;;;;;;5076665;28;20805;-80
2022/08/14 09:30:38;;;;;;;3.00;2.80;;;26.40;66.80;;;;;;5085376;28;21009;-79
2022/08/14 09:33:21;;;;;;;3.77;2.50;;;26.50;65.70;;;;;;5089828;28;21180;-80
2022/08/14 09:36:00;;;;;;;2.40;2.30;;;26.60;65.20;;;;;;5091342;28;21216;-79
2022/08/14 09:38:38;;;;;;;3.90;3.60;;;26.60;65.00;;;;;;5088502;28;20665;-80
2022/08/14 09:41:13;;;;;;;3.10;2.53;;;26.70;64.40;;;;;;5089796;28;20626;-80
2022/08/14 09:43:51;;;;;;;2.67;2.57;;;26.90;64.70;;;;;;5074721;28;20986;-80
2022/08/14 09:46:18;;;;;;;2.60;2.47;;;27.00;62.90;;;;;;5082267;28;20721;-80
2022/08/14 09:48:45;;;;;;;3.63;2.90;;;27.10;62.30;;;;;;5085277;28;20661;-80
2022/08/14 09:51:23;;;;;;;2.50;2.30;;;27.20;61.60;;;;;;5072324;28;20636;-80
2022/08/14 09:54:02;;;;;;;2.80;2.60;;;27.30;60.70;;;;;;5078422;28;20619;-80
2022/08/14 09:56:29;;;;;;;3.80;3.07;;;27.30;61.60;;;;;;5082588;28;21296;-79
2022/08/14 09:58:59;;;;;;;3.90;3.33;;;27.30;60.10;;;;;;5084912;28;20730;-79
2022/08/14 10:01:36;;;;;;;3.33;3.13;;;27.40;59.90;;;;;;5089861;28;21172;-79
2022/08/14 10:04:18;;;;;;;3.30;2.73;;;27.40;59.40;;;;;;5081985;28;20630;-79
2022/08/14 10:06:45;;;;;;;2.50;2.40;;;27.50;59.50;;;;;;5086375;28;20715;-79
2022/08/14 10:09:12;;;;;;;3.13;2.93;;;27.50;59.00;;;;;;5087665;28;20665;-80
2022/08/14 10:11:40;;;;;;;3.20;3.00;;;27.50;59.50;;;;;;5080360;28;20631;-80
2022/08/14 10:14:19;;;;;;;5.03;3.10;;;27.70;59.20;;;;;;5081179;28;20639;-80
2022/08/14 10:16:49;;;;;;;3.00;2.80;;;27.80;58.50;;;;;;5087821;28;20638;-79
2022/08/14 10:19:18;;;;;;;4.60;3.07;;;27.90;58.30;;;;;;5087190;28;21238;-79
2022/08/14 10:21:57;;;;;;;2.73;2.63;;;27.90;57.20;;;;;;5095465;28;20664;-79
2022/08/14 10:24:26;;;;;;;2.70;2.60;;;27.90;57.30;;;;;;5079531;28;20647;-79
2022/08/14 10:26:55;;;;;;;2.83;2.63;;;28.10;57.30;;;;;;5089560;28;21196;-80
2022/08/14 10:29:31;;;;;;;3.20;3.00;;;28.20;56.80;;;;;;5088870;28;20664;-79
2022/08/14 10:31:59;;;;;;;3.87;2.67;;;28.30;56.50;;;;;;5084271;28;20659;-79
2022/08/14 10:34:32;;;;;;;3.07;2.73;;;28.50;55.60;;;;;;5084771;28;20644;-80
2022/08/14 10:37:04;;;;;;;3.53;3.20;;;28.60;56.40;;;;;;5077662;28;21020;-79
2022/08/14 10:39:31;;;;;;;2.63;2.43;;;28.90;55.20;;;;;;5081498;28;20707;-79
2022/08/14 10:42:04;;;;;;;2.93;2.80;;;29.10;54.00;;;;;;5078278;28;20996;-79
2022/08/14 10:44:35;;;;;;;2.93;2.83;;;29.20;55.00;;;;;;5079558;28;21118;-79
2022/08/14 10:47:04;;;;;;;3.10;2.73;;;29.50;53.90;;;;;;5088382;28;20712;-79
2022/08/14 10:49:32;;;;;;;3.53;3.23;;;29.60;53.00;;;;;;5088256;28;20672;-79
2022/08/14 10:52:04;;;;;;;3.57;3.37;;;29.90;53.60;;;;;;5077953;28;20628;-79
2022/08/14 10:54:37;;;;;;;3.20;2.90;;;30.10;51.70;;;;;;5087087;28;20646;-79
2022/08/14 10:57:17;;;;;;;2.83;2.63;;;30.20;51.90;;;;;;5086374;28;20980;-78
2022/08/14 10:59:52;;;;;;;3.37;3.10;;;30.40;50.80;;;;;;5084921;28;20626;-79
2022/08/14 11:02:21;;;;;;;3.60;3.40;;;30.50;51.30;;;;;;5082387;28;20627;-79
2022/08/14 11:05:02;;;;;;;3.40;3.10;;;30.70;50.10;;;;;;5088881;28;20634;-79
2022/08/14 11:07:30;;;;;;;2.90;2.70;;;30.80;50.10;;;;;;5091162;28;20624;-79
2022/08/14 11:09:59;;;;;;;3.87;3.40;;;31.00;49.40;;;;;;5088019;28;20663;-79
2022/08/14 11:12:27;;;;;;;3.73;3.37;;;31.20;48.80;;;;;;5083616;28;21020;-79
2022/08/14 11:14:58;;;;;;;3.50;3.23;;;31.20;48.50;;;;;;5078001;28;21017;-79
2022/08/14 11:17:26;;;;;;;3.53;3.33;;;31.40;48.50;;;;;;5074546;28;21222;-79
2022/08/14 11:19:58;;;;;;;3.00;2.80;;;31.40;47.20;;;;;;5075386;28;20628;-79
2022/08/14 11:22:28;;;;;;;10.67;3.07;;;31.60;47.90;;;;;;5086255;28;20624;-79
2022/08/14 11:24:56;;;;;;;3.50;3.20;;;32.00;47.70;;;;;;5081805;28;21037;-79
2022/08/14 11:27:25;;;;;;;4.27;3.93;;;32.40;45.50;;;;;;5082838;28;20639;-79
2022/08/14 11:29:53;;;;;;;4.10;3.80;;;32.50;45.10;;;;;;5077879;28;20667;-79
2022/08/14 11:32:21;;;;;;;3.87;3.37;;;32.70;45.00;;;;;;5078667;28;20625;-79
2022/08/14 11:34:52;;;;;;;3.70;3.40;;;33.10;44.60;;;;;;5082704;28;20945;-79
2022/08/14 11:37:19;;;;;;;3.20;3.00;;;33.40;43.90;;;;;;5080940;28;20631;-79
2022/08/14 11:39:47;;;;;;;3.60;3.30;;;33.60;43.70;;;;;;5082813;28;20615;-79
2022/08/14 11:42:22;;;;;;;3.40;3.07;;;33.80;43.00;;;;;;5085516;28;20651;-79
2022/08/14 11:44:49;;;;;;;3.50;3.30;;;33.90;42.20;;;;;;5074470;28;20627;-78
2022/08/14 11:47:18;;;;;;;3.60;3.20;;;33.70;42.20;;;;;;5080707;28;21017;-79
2022/08/14 11:49:48;;;;;;;2.60;2.50;;;33.80;41.80;;;;;;5083021;28;21505;-79
2022/08/14 11:52:16;;;;;;;3.60;3.27;;;34.00;42.10;;;;;;5085173;28;20624;-79
2022/08/14 11:54:43;;;;;;;3.33;3.03;;;34.30;41.40;;;;;;5086991;28;20627;-79
2022/08/14 11:57:18;;;;;;;3.17;2.83;;;34.70;40.70;;;;;;5088326;28;21020;-79
2022/08/14 11:59:45;;;;;;;3.40;2.83;;;35.10;39.30;;;;;;5076988;28;20662;-79
2022/08/14 12:02:14;;;;;;;3.33;3.03;;;34.90;39.30;;;;;;5080800;28;20628;-77
2022/08/14 12:07:54;;;;;;;3.10;2.90;;;35.30;39.90;;;;;;5097907;27;20778;-79
2022/08/14 12:10:21;;;;;;;2.90;2.70;;;36.10;37.40;;;;;;5097010;28;20639;-79
2022/08/14 12:12:51;;;;;;;3.07;2.87;;;36.30;37.30;;;;;;5097936;28;20623;-80
2022/08/14 12:15:32;;;;;;;2.97;2.73;;;36.70;36.40;;;;;;5089014;28;21432;-80
2022/08/14 12:17:59;;;;;;;3.03;2.83;;;37.00;36.10;;;;;;5101287;28;20200;-80
2022/08/14 12:20:31;;;;;;;3.00;2.87;;;37.30;34.80;;;;;;5103047;28;20485;-79
2022/08/14 12:23:01;;;;;;;3.05;2.75;;;37.60;31.90;;;;;;5097382;28;20197;-79
2022/08/14 12:25:28;;;;;;;2.10;2.00;;;37.30;31.60;;;;;;5094656;28;20565;-79
2022/08/14 12:27:57;;;;;;;2.30;2.10;;;37.20;31.80;;;;;;5100673;28;20557;-80
2022/08/14 12:30:33;;;;;;;2.73;2.53;;;37.50;31.10;;;;;;5095338;28;20672;-80
2022/08/14 12:33:02;;;;;;;2.90;2.47;;;37.10;31.20;;;;;;5092637;28;20208;-79
2022/08/14 12:35:39;;;;;;;2.67;2.58;;;37.50;31.40;;;;;;5086142;28;20610;-80
2022/08/14 12:38:09;;;;;;;5.45;2.47;;;37.40;29.80;;;;;;5097382;28;20204;-79
2022/08/14 12:40:45;;;;;;;2.33;2.22;;;37.40;30.80;;;;;;5092033;28;20193;-79
2022/08/14 12:43:12;;;;;;;2.42;2.28;;;37.90;31.80;;;;;;5095179;28;20292;-78
2022/08/14 12:45:41;;;;;;;2.72;2.63;;;38.30;31.30;;;;;;5094398;28;20209;-79
2022/08/14 12:48:08;;;;;;;3.28;2.35;;;38.70;31.00;;;;;;5096519;28;20618;-78
2022/08/14 12:50:37;;;;;;;3.20;3.00;;;39.20;30.40;;;;;;5095917;28;20208;-79
2022/08/14 12:53:04;;;;;;;2.65;2.55;;;39.10;29.60;;;;;;5095174;28;20228;-79
2022/08/14 12:55:34;;;;;;;2.90;2.70;;;38.40;29.50;;;;;;5096971;28;20213;-79
2022/08/14 12:58:04;;;;;;;2.67;2.47;;;38.60;29.00;;;;;;5091016;28;20252;-79
2022/08/14 13:00:32;;;;;;;4.47;2.47;;;38.80;28.80;;;;;;5096285;28;20260;-79
2022/08/14 13:02:59;;;;;;;2.83;2.63;;;39.10;29.10;;;;;;5096242;28;20205;-79
2022/08/14 13:05:28;;;;;;;4.75;2.22;;;39.70;29.70;;;;;;5094220;28;20677;-79
2022/08/14 13:07:58;;;;;;;2.58;2.40;;;40.10;28.60;;;;;;5096241;28;20225;-79
2022/08/14 13:10:26;;;;;;;3.05;2.28;;;40.30;28.30;;;;;;5095404;28;20543;-79
2022/08/14 13:12:56;;;;;;;2.33;2.22;;;40.70;28.20;;;;;;5093979;28;20201;-79